createdAt,value
2018-04-12T00:00:50.908Z,76.49
2018-04-12T00:03:17.471Z,77.14
2018-04-12T00:05:43.875Z,75.46
2018-04-12T00:08:10.297Z,75.75
2018-04-12T00:10:36.730Z,77.21
2018-04-12T00:13:03.090Z,77.92
2018-04-12T00:15:29.524Z,76.19
2018-04-12T00:17:55.942Z,75.89
2018-04-12T00:20:22.350Z,77.45
2018-04-12T00:22:48.762Z,78.68
2018-04-12T00:25:15.174Z,79.67
2018-04-12T00:27:41.579Z,78.24
2018-04-12T00:30:07.948Z,78.39
2018-04-12T00:32:34.475Z,80.30
2018-04-12T00:35:00.811Z,79.21
2018-04-12T00:37:27.149Z,80.37
2018-04-12T00:39:53.544Z,80.73
2018-04-12T00:42:19.980Z,80.05
2018-04-12T00:44:46.363Z,77.99
2018-04-12T00:47:12.792Z,79.49
2018-04-12T00:49:39.179Z,80.06
2018-04-12T00:52:06.661Z,81.20
2018-04-12T00:54:33.096Z,80.91
2018-04-12T00:56:59.445Z,79.70
2018-04-12T00:59:25.850Z,79.11
2018-04-12T01:01:52.275Z,80.20
2018-04-12T01:04:18.589Z,81.57
2018-04-12T01:06:44.973Z,81.00
2018-04-12T01:09:11.363Z,81.32
2018-04-12T01:11:37.738Z,81.05
2018-04-12T01:14:04.219Z,79.83
2018-04-12T01:16:30.630Z,82.48
2018-04-12T01:18:57.010Z,82.20
2018-04-12T01:21:23.410Z,83.78
2018-04-12T01:23:49.809Z,82.79
2018-04-12T01:26:16.226Z,82.83
2018-04-12T01:28:42.576Z,82.37
2018-04-12T01:31:09.025Z,83.01
2018-04-12T01:33:35.426Z,82.92
2018-04-12T01:36:01.782Z,81.51
2018-04-12T01:38:28.147Z,84.21
2018-04-12T01:40:54.522Z,81.99
2018-04-12T01:43:20.921Z,82.28
2018-04-12T01:45:47.296Z,84.57
2018-04-12T01:48:13.648Z,84.10
2018-04-12T01:50:40.133Z,84.73
2018-04-12T01:53:08.530Z,84.10
2018-04-12T01:55:34.923Z,84.56
2018-04-12T01:58:01.405Z,85.80
2018-04-12T02:00:27.894Z,85.44
2018-04-12T02:02:54.336Z,84.50
2018-04-12T02:05:20.745Z,85.58
2018-04-12T02:07:47.234Z,85.82
2018-04-12T02:10:13.730Z,83.89
2018-04-12T02:12:46.112Z,84.50
2018-04-12T02:15:12.555Z,84.96
2018-04-12T02:17:38.908Z,83.57
2018-04-12T02:20:05.332Z,83.80
2018-04-12T02:22:31.821Z,85.39
2018-04-12T02:24:58.165Z,86.88
2018-04-12T02:27:24.551Z,86.32
2018-04-12T02:29:50.965Z,86.03
2018-04-12T02:32:18.508Z,86.89
2018-04-12T02:34:44.865Z,87.63
2018-04-12T02:37:11.240Z,85.95
2018-04-12T02:39:37.545Z,87.50
2018-04-12T02:42:04.921Z,87.25
2018-04-12T02:44:31.316Z,87.38
2018-04-12T02:46:57.677Z,86.18
2018-04-12T02:49:23.994Z,87.55
2018-04-12T02:51:50.420Z,87.85
2018-04-12T02:54:16.804Z,87.55
2018-04-12T02:56:43.151Z,86.99
2018-04-12T02:59:09.510Z,87.94
2018-04-12T03:01:35.917Z,87.28
2018-04-12T03:04:02.431Z,88.66
2018-04-12T03:06:28.871Z,88.80
2018-04-12T03:08:55.306Z,87.82
2018-04-12T03:11:21.691Z,88.53
2018-04-12T03:13:48.114Z,87.79
2018-04-12T03:16:14.520Z,88.59
2018-04-12T03:18:40.872Z,88.77
2018-04-12T03:21:07.673Z,86.98
2018-04-12T03:23:34.214Z,87.55
2018-04-12T03:26:00.601Z,88.82
2018-04-12T03:28:26.946Z,88.71
2018-04-12T03:30:53.318Z,89.40
2018-04-12T03:33:21.693Z,90.14
2018-04-12T03:35:48.162Z,89.69
2018-04-12T03:38:14.555Z,90.68
2018-04-12T03:40:40.955Z,89.92
2018-04-12T03:43:07.581Z,90.16
2018-04-12T03:45:33.958Z,91.04
2018-04-12T03:48:00.444Z,90.16
2018-04-12T03:50:26.917Z,90.42
2018-04-12T03:52:53.364Z,90.79
2018-04-12T03:55:19.680Z,90.83
2018-04-12T03:57:46.040Z,91.07
2018-04-12T04:00:12.741Z,90.09
2018-04-12T04:02:39.170Z,89.59
2018-04-12T04:05:05.592Z,90.49
2018-04-12T04:07:31.992Z,90.05
2018-04-12T04:09:58.351Z,89.82
2018-04-12T04:12:28.384Z,89.74
2018-04-12T04:18:07.578Z,85.45
2018-04-12T04:20:46.369Z,82.85
2018-04-12T04:23:12.789Z,81.14
2018-04-12T04:25:39.221Z,79.00
2018-04-12T04:28:05.586Z,77.61
2018-04-12T04:30:31.994Z,76.46
2018-04-12T04:32:58.379Z,73.20
2018-04-12T04:35:24.727Z,70.91
2018-04-12T04:37:51.101Z,66.67
2018-04-12T04:40:17.502Z,68.50
2018-04-12T04:42:45.086Z,65.71
2018-04-12T04:45:11.563Z,65.10
2018-04-12T04:47:38.012Z,60.49
2018-04-12T04:50:04.511Z,59.67
2018-04-12T04:52:31.055Z,60.02
2018-04-12T04:54:57.491Z,58.25
2018-04-12T04:57:23.940Z,58.29
2018-04-12T04:59:50.363Z,59.77
2018-04-12T05:02:16.809Z,61.50
2018-04-12T05:04:43.242Z,58.44
2018-04-12T05:07:09.679Z,60.35
2018-04-12T05:09:36.032Z,58.79
2018-04-12T05:12:02.423Z,58.32
2018-04-12T05:14:28.977Z,58.65
2018-04-12T05:16:55.411Z,58.83
2018-04-12T05:19:21.815Z,59.18
2018-04-12T05:21:48.251Z,56.38
2018-04-12T05:24:14.786Z,55.85
2018-04-12T05:26:41.236Z,57.64
2018-04-12T05:29:07.659Z,57.19
2018-04-12T05:31:34.091Z,55.63
2018-04-12T05:34:00.615Z,56.83
2018-04-12T05:36:27.066Z,55.95
2018-04-12T05:38:53.507Z,57.21
2018-04-12T05:41:19.917Z,56.06
2018-04-12T05:43:46.530Z,55.72
2018-04-12T05:46:12.978Z,57.11
2018-04-12T05:48:39.383Z,58.32
2018-04-12T05:51:05.947Z,57.00
2018-04-12T05:53:32.471Z,56.39
2018-04-12T05:55:59.012Z,55.90
2018-04-12T05:58:25.474Z,57.89
2018-04-12T06:00:51.858Z,58.11
2018-04-12T06:03:18.312Z,57.44
2018-04-12T06:05:44.800Z,57.63
2018-04-12T06:08:11.145Z,58.26
2018-04-12T06:10:37.477Z,59.67
2018-04-12T06:13:04.133Z,60.06
2018-04-12T06:15:30.602Z,60.31
2018-04-12T06:17:57.038Z,59.48
2018-04-12T06:20:23.476Z,59.66
2018-04-12T06:22:49.826Z,59.65
2018-04-12T06:25:16.297Z,58.79
2018-04-12T06:27:42.690Z,61.46
2018-04-12T06:30:09.082Z,58.58
2018-04-12T06:32:35.554Z,62.96
2018-04-12T06:35:03.167Z,58.82
2018-04-12T06:37:30.910Z,58.58
2018-04-12T06:39:59.027Z,58.90
2018-04-12T06:42:26.489Z,60.82
2018-04-12T06:44:54.008Z,60.56
2018-04-12T06:47:22.010Z,58.85
2018-04-12T06:49:49.071Z,57.66
2018-04-12T06:52:15.624Z,59.73
2018-04-12T06:54:42.159Z,59.27
2018-04-12T06:57:08.597Z,58.46
2018-04-12T06:59:35.031Z,59.78
2018-04-12T07:02:01.413Z,58.28
2018-04-12T07:04:28.039Z,53.85
2018-04-12T07:06:55.464Z,54.75
2018-04-12T07:09:21.959Z,53.52
2018-04-12T07:11:48.390Z,54.50
2018-04-12T07:14:14.875Z,53.52
2018-04-12T07:16:41.382Z,55.55
2018-04-12T07:19:07.813Z,52.97
2018-04-12T07:21:34.170Z,54.91
2018-04-12T07:24:00.827Z,53.26
2018-04-12T07:26:27.390Z,51.63
2018-04-12T07:28:53.946Z,52.22
2018-04-12T07:31:20.353Z,49.58
2018-04-12T07:33:46.825Z,53.68
2018-04-12T07:36:13.253Z,49.46
2018-04-12T07:38:39.684Z,51.01
2018-04-12T07:41:06.611Z,56.74
2018-04-12T07:43:33.396Z,52.38
2018-04-12T07:46:00.537Z,50.90
2018-04-12T07:48:27.152Z,51.46
2018-04-12T07:50:53.512Z,52.13
2018-04-12T07:53:19.961Z,54.57
2018-04-12T07:55:46.388Z,57.69
2018-04-12T07:58:12.944Z,50.46
2018-04-12T08:00:39.466Z,52.48
2018-04-12T08:03:06.971Z,54.41
2018-04-12T08:05:33.355Z,54.33
2018-04-12T08:07:59.710Z,49.70
2018-04-12T08:10:26.185Z,51.84
2018-04-12T08:12:52.581Z,49.13
2018-04-12T08:15:18.975Z,48.93
2018-04-12T08:17:45.409Z,51.12
2018-04-12T08:20:11.948Z,52.46
2018-04-12T08:22:38.467Z,48.02
2018-04-12T08:25:04.877Z,48.14
2018-04-12T08:27:31.289Z,52.75
2018-04-12T08:29:57.720Z,54.29
2018-04-12T08:32:24.154Z,54.26
2018-04-12T08:34:50.609Z,51.16
2018-04-12T08:37:17.059Z,48.76
2018-04-12T08:39:43.529Z,50.62
2018-04-12T08:42:09.891Z,46.93
2018-04-12T08:44:36.320Z,50.15
2018-04-12T08:47:02.711Z,49.77
2018-04-12T08:49:29.088Z,52.03
2018-04-12T08:51:55.481Z,47.42
2018-04-12T08:54:22.036Z,51.11
2018-04-12T08:56:48.448Z,45.24
2018-04-12T08:59:14.805Z,47.10
2018-04-12T09:01:41.326Z,46.59
2018-04-12T09:04:07.818Z,47.30
2018-04-12T09:06:34.218Z,50.44
2018-04-12T09:09:00.645Z,45.45
2018-04-12T09:11:27.199Z,44.99
2018-04-12T09:13:53.735Z,46.17
2018-04-12T09:16:20.156Z,44.49
2018-04-12T09:18:46.535Z,45.71
2018-04-12T09:21:13.052Z,44.40
2018-04-12T09:23:39.585Z,45.62
2018-04-12T09:26:06.015Z,43.68
2018-04-12T09:28:32.445Z,45.83
2018-04-12T09:30:58.844Z,43.59
2018-04-12T09:33:25.350Z,46.10
2018-04-12T09:35:51.921Z,45.72
2018-04-12T09:38:18.476Z,40.98
2018-04-12T09:40:44.849Z,42.47
2018-04-12T09:43:11.404Z,43.82
2018-04-12T09:45:37.829Z,40.78
2018-04-12T09:48:04.306Z,42.91
2018-04-12T09:50:30.761Z,43.20
2018-04-12T09:52:57.152Z,41.58
2018-04-12T09:55:23.525Z,43.57
2018-04-12T09:57:50.043Z,41.07
2018-04-12T10:00:22.383Z,41.79
2018-04-12T10:02:54.885Z,38.72
2018-04-12T10:05:27.273Z,38.78
2018-04-12T10:07:53.766Z,37.77
2018-04-12T10:10:20.196Z,34.82
2018-04-12T10:12:46.683Z,35.08
2018-04-12T10:15:13.232Z,38.24
2018-04-12T10:17:39.719Z,36.62
2018-04-12T10:20:06.249Z,39.27
2018-04-12T10:22:32.777Z,34.13
2018-04-12T10:25:00.327Z,32.79
2018-04-12T10:27:26.772Z,41.27
2018-04-12T10:29:53.410Z,34.15
2018-04-12T10:32:20.027Z,33.09
2018-04-12T10:34:46.562Z,33.40
2018-04-12T10:37:13.039Z,33.75
2018-04-12T10:39:39.573Z,34.85
2018-04-12T10:42:06.070Z,35.21
2018-04-12T10:44:32.571Z,34.83
2018-04-12T10:46:58.959Z,30.67
2018-04-12T10:49:25.365Z,31.10
2018-04-12T10:51:51.796Z,31.53
2018-04-12T10:54:18.247Z,30.01
2018-04-12T10:56:44.672Z,32.02
2018-04-12T10:59:11.188Z,28.92
2018-04-12T11:01:37.685Z,28.64
2018-04-12T11:04:04.208Z,28.86
2018-04-12T11:06:30.711Z,28.20
2018-04-12T11:08:57.213Z,28.53
2018-04-12T11:11:23.598Z,26.86
2018-04-12T11:13:50.100Z,34.46
2018-04-12T11:16:16.784Z,28.00
2018-04-12T11:18:43.373Z,30.81
2018-04-12T11:21:09.907Z,29.23
2018-04-12T11:23:36.355Z,28.89
2018-04-12T11:26:02.901Z,27.50
2018-04-12T11:28:29.373Z,27.65
2018-04-12T11:30:55.838Z,29.99
2018-04-12T11:33:22.305Z,28.37
2018-04-12T11:35:48.839Z,27.89
2018-04-12T11:38:15.669Z,28.73
2018-04-12T11:40:42.170Z,28.12
2018-04-12T11:43:08.845Z,31.55
2018-04-12T11:45:35.280Z,28.99
2018-04-12T11:48:01.692Z,27.96
2018-04-12T11:50:28.128Z,28.67
2018-04-12T11:52:54.637Z,30.23
2018-04-12T11:55:21.067Z,29.15
2018-04-12T11:57:47.521Z,28.63
2018-04-12T12:00:13.932Z,28.45
2018-04-12T12:02:40.326Z,28.16
2018-04-12T12:05:06.885Z,26.62
2018-04-12T12:07:33.242Z,25.74
2018-04-12T12:09:59.613Z,31.93
2018-04-12T12:12:26.207Z,26.41
2018-04-12T12:14:52.629Z,27.56
2018-04-12T12:17:19.058Z,28.11
2018-04-12T12:19:45.541Z,31.94
2018-04-12T12:22:11.951Z,30.53
2018-04-12T12:24:38.423Z,28.98
2018-04-12T12:27:04.840Z,28.79
2018-04-12T12:29:31.202Z,28.15
2018-04-12T12:31:57.628Z,27.28
2018-04-12T12:34:24.170Z,28.89
2018-04-12T12:36:50.642Z,25.77
2018-04-12T12:39:17.040Z,27.01
2018-04-12T12:41:43.439Z,25.93
2018-04-12T12:44:09.897Z,25.83
2018-04-12T12:46:36.302Z,25.49
2018-04-12T12:49:02.739Z,26.11
2018-04-12T12:51:29.208Z,26.22
2018-04-12T12:53:55.669Z,26.53
2018-04-12T12:56:22.076Z,26.98
2018-04-12T12:58:48.687Z,27.84
2018-04-12T13:01:15.064Z,25.22
2018-04-12T13:03:41.542Z,23.07
2018-04-12T13:06:07.972Z,25.16
2018-04-12T13:08:34.421Z,27.46
2018-04-12T13:11:00.868Z,26.92
2018-04-12T13:13:27.367Z,24.78
2018-04-12T13:15:53.812Z,26.36
2018-04-12T13:18:20.383Z,25.37
2018-04-12T13:20:46.743Z,28.16
2018-04-12T13:23:13.665Z,27.15
2018-04-12T13:25:40.131Z,26.67
2018-04-12T13:28:06.570Z,28.26
2018-04-12T13:30:32.906Z,24.74
2018-04-12T13:32:59.379Z,26.92
2018-04-12T13:35:25.837Z,26.46
2018-04-12T13:37:52.229Z,27.55
2018-04-12T13:40:18.692Z,26.46
2018-04-12T13:42:45.155Z,28.71
2018-04-12T13:45:11.721Z,28.61
2018-04-12T13:47:38.144Z,25.95
2018-04-12T13:50:04.541Z,26.67
2018-04-12T13:52:30.978Z,28.22
2018-04-12T13:54:57.439Z,28.48
2018-04-12T13:57:23.796Z,27.94
2018-04-12T13:59:50.210Z,28.51
2018-04-12T14:02:16.966Z,26.10
2018-04-12T14:04:43.490Z,24.83
2018-04-12T14:07:09.805Z,22.76
2018-04-12T14:09:36.206Z,24.81
2018-04-12T14:12:02.684Z,23.94
2018-04-12T14:14:29.192Z,25.99
2018-04-12T14:16:55.532Z,25.04
2018-04-12T14:19:21.929Z,22.72
2018-04-12T14:21:48.265Z,22.74
2018-04-12T14:24:14.702Z,24.21
2018-04-12T14:26:41.061Z,24.18
2018-04-12T14:29:07.517Z,25.09
2018-04-12T14:31:34.025Z,25.32
2018-04-12T14:34:00.575Z,24.32
2018-04-12T14:36:27.082Z,24.23
2018-04-12T14:38:53.494Z,23.13
2018-04-12T14:41:20.047Z,25.59
2018-04-12T14:43:46.429Z,26.49
2018-04-12T14:46:12.829Z,24.68
2018-04-12T14:48:39.293Z,25.09
2018-04-12T14:51:05.769Z,24.89
2018-04-12T14:53:32.250Z,25.28
2018-04-12T14:55:58.843Z,25.72
2018-04-12T14:58:25.207Z,27.24
2018-04-12T15:00:51.605Z,28.03
2018-04-12T15:03:18.072Z,29.68
2018-04-12T15:05:44.497Z,29.25
2018-04-12T15:08:11.051Z,29.36
2018-04-12T15:10:37.591Z,29.62
2018-04-12T15:13:04.098Z,30.42
2018-04-12T15:15:30.510Z,30.41
2018-04-12T15:17:57.034Z,30.33
2018-04-12T15:20:23.639Z,30.33
2018-04-12T15:22:50.111Z,30.09
2018-04-12T15:25:16.617Z,30.08
2018-04-12T15:27:43.529Z,30.17
2018-04-12T15:30:10.067Z,31.00
2018-04-12T15:32:36.475Z,30.59
2018-04-12T15:35:02.905Z,30.81
2018-04-12T15:37:29.267Z,32.62
2018-04-12T15:39:55.705Z,31.55
2018-04-12T15:42:22.481Z,32.26
2018-04-12T15:44:49.092Z,31.79
2018-04-12T15:47:15.639Z,31.82
2018-04-12T15:49:42.071Z,32.55
2018-04-12T15:52:08.479Z,32.82
2018-04-12T15:54:35.069Z,33.04
2018-04-12T15:57:01.538Z,33.16
2018-04-12T15:59:27.953Z,33.38
2018-04-12T16:01:54.932Z,33.32
2018-04-12T16:04:21.508Z,33.71
2018-04-12T16:06:48.124Z,34.26
2018-04-12T16:09:14.710Z,34.32
2018-04-12T16:11:41.169Z,34.84
2018-04-12T16:14:07.610Z,35.83
2018-04-12T16:16:34.047Z,35.24
2018-04-12T16:19:00.447Z,35.82
2018-04-12T16:21:26.905Z,36.25
2018-04-12T16:23:53.377Z,36.53
2018-04-12T16:26:19.849Z,36.16
2018-04-12T16:28:46.251Z,37.20
2018-04-12T16:31:12.793Z,37.14
2018-04-12T16:33:39.241Z,37.34
2018-04-12T16:36:05.869Z,37.33
2018-04-12T16:38:32.449Z,37.84
2018-04-12T16:40:59.976Z,37.58
2018-04-12T16:43:26.450Z,38.17
2018-04-12T16:45:52.955Z,38.03
2018-04-12T16:48:19.431Z,37.61
2018-04-12T16:50:46.701Z,37.76
2018-04-12T16:53:14.689Z,38.25
2018-04-12T16:55:41.545Z,38.66
2018-04-12T16:58:08.710Z,39.59
2018-04-12T17:00:36.784Z,38.48
2018-04-12T17:03:04.465Z,38.90
2018-04-12T17:05:32.201Z,39.51
2018-04-12T17:08:00.507Z,39.75
2018-04-12T17:10:27.367Z,39.78
2018-04-12T17:12:53.986Z,40.44
2018-04-12T17:15:20.651Z,40.44
2018-04-12T17:17:47.448Z,40.61
2018-04-12T17:20:14.234Z,41.25
2018-04-12T17:22:41.967Z,41.80
2018-04-12T17:25:08.789Z,41.11
2018-04-12T17:27:35.300Z,41.56
2018-04-12T17:30:01.843Z,41.23
2018-04-12T17:32:28.195Z,41.63
2018-04-12T17:34:54.714Z,41.70
2018-04-12T17:37:21.297Z,42.74
2018-04-12T17:39:47.767Z,42.88
2018-04-12T17:42:14.517Z,42.95
2018-04-12T17:44:41.132Z,44.04
2018-04-12T17:47:07.628Z,43.39
2018-04-12T17:49:34.100Z,44.24
2018-04-12T17:52:00.580Z,43.93
2018-04-12T17:54:27.558Z,45.22
2018-04-12T17:56:54.196Z,44.94
2018-04-12T17:59:20.760Z,45.03
2018-04-12T18:01:48.136Z,44.35
2018-04-12T18:04:14.726Z,45.07
2018-04-12T18:06:41.266Z,45.30
2018-04-12T18:09:08.535Z,45.97
2018-04-12T18:11:35.167Z,45.40
2018-04-12T18:14:01.831Z,45.36
2018-04-12T18:16:28.645Z,45.01
2018-04-12T18:18:55.143Z,45.74
2018-04-12T18:21:21.699Z,46.04
2018-04-12T18:23:49.439Z,45.69
2018-04-12T18:26:16.003Z,45.31
2018-04-12T18:28:42.496Z,45.29
2018-04-12T18:31:09.025Z,45.15
2018-04-12T18:33:35.547Z,46.00
2018-04-12T18:36:02.111Z,45.67
2018-04-12T18:38:28.567Z,46.19
2018-04-12T18:40:55.328Z,47.55
2018-04-12T18:43:21.926Z,47.27
2018-04-12T18:45:48.676Z,48.17
2018-04-12T18:48:15.313Z,48.56
2018-04-12T18:50:42.413Z,48.76
2018-04-12T18:53:09.063Z,48.73
2018-04-12T18:55:36.291Z,49.04
2018-04-12T18:58:03.015Z,48.86
2018-04-12T19:00:29.374Z,49.13
2018-04-12T19:02:56.132Z,49.49
2018-04-12T19:05:22.700Z,49.70
2018-04-12T19:07:49.277Z,50.14
2018-04-12T19:10:15.868Z,49.96
2018-04-12T19:12:42.259Z,50.33
2018-04-12T19:15:08.945Z,51.09
2018-04-12T19:17:35.349Z,50.83
2018-04-12T19:20:02.209Z,51.18
2018-04-12T19:22:29.155Z,52.15
2018-04-12T19:24:56.145Z,52.25
2018-04-12T19:27:22.931Z,52.14
2018-04-12T19:29:49.828Z,53.15
2018-04-12T19:32:16.660Z,52.75
2018-04-12T19:34:43.495Z,52.82
2018-04-12T19:37:10.433Z,53.42
2018-04-12T19:39:37.378Z,53.37
2018-04-12T19:42:04.120Z,53.91
2018-04-12T19:44:32.277Z,53.12
2018-04-12T19:46:59.483Z,55.26
2018-04-12T19:49:26.821Z,54.76
2018-04-12T19:51:54.382Z,55.15
2018-04-12T19:54:22.147Z,55.79
2018-04-12T19:56:50.483Z,56.09
2018-04-12T19:59:18.524Z,57.31
2018-04-12T20:01:46.667Z,57.06
2018-04-12T20:04:13.605Z,56.65
2018-04-12T20:06:42.117Z,56.85
2018-04-12T20:09:08.926Z,57.58
2018-04-12T20:11:35.885Z,57.93
2018-04-12T20:14:02.802Z,57.54
2018-04-12T20:16:29.783Z,56.34
2018-04-12T20:18:56.606Z,56.93
2018-04-12T20:21:23.628Z,57.42
2018-04-12T20:23:51.467Z,58.34
2018-04-12T20:26:18.551Z,57.31
2018-04-12T20:28:45.452Z,57.02
2018-04-12T20:31:12.360Z,57.52
2018-04-12T20:33:39.506Z,58.15
2018-04-12T20:36:06.387Z,58.15
2018-04-12T20:38:33.205Z,58.29
2018-04-12T20:41:00.007Z,58.35
2018-04-12T20:43:26.722Z,58.53
2018-04-12T20:45:53.776Z,58.16
2018-04-12T20:48:20.543Z,58.05
2018-04-12T20:50:47.420Z,58.72
2018-04-12T20:53:14.532Z,58.49
2018-04-12T20:55:41.338Z,59.12
2018-04-12T20:58:08.056Z,58.50
2018-04-12T21:00:34.689Z,57.80
2018-04-12T21:03:01.462Z,57.83
2018-04-12T21:05:28.348Z,58.51
2018-04-12T21:07:55.076Z,57.46
2018-04-12T21:10:21.702Z,57.31
2018-04-12T21:12:48.799Z,57.59
2018-04-12T21:15:16.653Z,56.90
2018-04-12T21:17:43.447Z,56.93
2018-04-12T21:20:10.147Z,56.27
2018-04-12T21:22:36.800Z,55.68
2018-04-12T21:25:03.477Z,55.21
2018-04-12T21:27:30.193Z,55.69
2018-04-12T21:29:56.800Z,55.86
2018-04-12T21:32:23.297Z,55.56
2018-04-12T21:34:49.858Z,55.11
2018-04-12T21:37:16.300Z,55.21
2018-04-12T21:39:42.741Z,55.23
2018-04-12T21:42:09.101Z,55.17
2018-04-12T21:44:35.535Z,54.58
2018-04-12T21:47:01.917Z,54.79
2018-04-12T21:49:28.314Z,55.01
2018-04-12T21:51:54.726Z,54.75
2018-04-12T21:54:21.256Z,54.99
2018-04-12T21:56:47.639Z,54.67
2018-04-12T21:59:14.014Z,55.11
2018-04-12T22:01:40.423Z,55.92
2018-04-12T22:04:06.884Z,55.75
2018-04-12T22:06:33.390Z,56.22
2018-04-12T22:08:59.811Z,56.16
2018-04-12T22:11:26.222Z,56.21
2018-04-12T22:13:52.720Z,56.82
2018-04-12T22:16:19.327Z,57.13
2018-04-12T22:18:45.828Z,57.55
2018-04-12T22:21:12.334Z,57.52
2018-04-12T22:23:39.080Z,57.52
2018-04-12T22:26:05.749Z,58.44
2018-04-12T22:28:32.252Z,58.77
2018-04-12T22:30:58.704Z,58.02
2018-04-12T22:33:25.214Z,58.96
2018-04-12T22:35:51.818Z,59.20
2018-04-12T22:38:18.247Z,59.10
2018-04-12T22:40:44.774Z,59.54
2018-04-12T22:43:11.287Z,60.15
2018-04-12T22:45:37.786Z,60.92
2018-04-12T22:48:04.278Z,61.40
2018-04-12T22:50:30.721Z,61.32
2018-04-12T22:52:57.223Z,61.17
2018-04-12T22:55:23.791Z,60.36
2018-04-12T22:57:51.066Z,60.71
2018-04-12T23:00:17.576Z,60.04
2018-04-12T23:02:44.059Z,60.47
2018-04-12T23:05:10.588Z,61.20
2018-04-12T23:07:37.054Z,61.33
2018-04-12T23:10:03.513Z,62.10
2018-04-12T23:12:30.026Z,61.95
2018-04-12T23:14:57.564Z,62.71
2018-04-12T23:17:23.999Z,62.89
2018-04-12T23:19:50.426Z,63.67
2018-04-12T23:22:16.955Z,63.53
2018-04-12T23:24:43.546Z,62.07
2018-04-12T23:27:09.998Z,61.88
2018-04-12T23:29:36.411Z,62.65
2018-04-12T23:32:02.873Z,63.90
2018-04-12T23:34:29.314Z,62.03
2018-04-12T23:36:55.821Z,61.70
2018-04-12T23:39:22.318Z,64.62
2018-04-12T23:41:48.872Z,65.00
2018-04-12T23:44:15.319Z,67.32
2018-04-12T23:46:41.828Z,66.14
2018-04-12T23:49:08.238Z,64.71
2018-04-12T23:51:34.642Z,63.94
2018-04-12T23:54:01.187Z,63.28
2018-04-12T23:56:27.653Z,63.55
2018-04-12T23:58:54.107Z,64.38
